Terminal Aerodrome Forecast
Issued by NWS Pendleton, OR

Home | Current Version | Previous Version | Text Only | Print | Product List | Glossary On
Versions: 1 2 3 4 5 6 7 8 9 10 11 12 13 14 15 16 17
000
FTUS46 KPDT 030520
TAFPDT
TAF
KPDT 030520Z 0306/0406 20008G15KT P6SM OVC050
     FM031400 24010G20KT P6SM SCT060 BKN100
     FM032100 25010G20KT P6SM SCT120
     FM040300 23008G15KT P6SM VCSH SCT060 OVC090=

USA.gov is the U.S. government's official web portal to all federal, state and local government web resources and services.